Time;durP1;ratioP1;P1;durP2;ratioP2;P2;SDS_P1;SDS_P2;PMS_P1;PMS_P2;Temp;Humidity;BMP_temperature;BMP_pressure;BME280_temperature;BME280_humidity;BME280_pressure;Samples;Min_cycle;Max_cycle;Signal;HPM_P1;HPM_P2
2021/07/08 00:01:06;;;;;;;1999.90;999.90;;;17.60;99.90;;;;;;5072756;28;20185;-65
2021/07/08 00:03:32;;;;;;;1999.90;999.90;;;17.60;99.90;;;;;;5072594;28;20201;-66
2021/07/08 00:05:58;;;;;;;1999.90;999.90;;;17.60;99.90;;;;;;5072349;28;20249;-66
2021/07/08 00:08:23;;;;;;;1999.90;999.90;;;17.60;99.90;;;;;;5072641;28;20172;-66
2021/07/08 00:10:52;;;;;;;1999.90;999.90;;;17.60;99.90;;;;;;5072445;28;20253;-66
2021/07/08 00:13:23;;;;;;;1999.90;999.90;;;17.50;99.90;;;;;;5072489;28;20186;-66
2021/07/08 00:15:50;;;;;;;1999.90;999.90;;;17.50;99.90;;;;;;5072261;28;20971;-65
2021/07/08 00:18:17;;;;;;;1999.90;999.90;;;17.60;99.90;;;;;;5072463;28;20447;-65
2021/07/08 00:20:48;;;;;;;1999.90;999.90;;;17.60;99.90;;;;;;5072283;28;20473;-65
2021/07/08 00:23:15;;;;;;;1999.90;999.90;;;17.60;99.90;;;;;;5072518;28;20462;-65
2021/07/08 00:25:41;;;;;;;1999.90;999.90;;;17.50;99.90;;;;;;5072058;28;20825;-65
2021/07/08 00:28:09;;;;;;;1999.90;999.90;;;17.50;99.90;;;;;;5072283;28;20508;-64
2021/07/08 00:30:34;;;;;;;1999.90;999.90;;;17.40;99.90;;;;;;5072174;28;20429;-65
2021/07/08 00:33:00;;;;;;;1999.90;999.90;;;17.30;99.90;;;;;;5072150;28;20437;-64
2021/07/08 00:35:26;;;;;;;1999.90;999.90;;;17.30;99.90;;;;;;5071905;28;20178;-65
2021/07/08 00:37:52;;;;;;;1999.90;999.90;;;17.20;99.90;;;;;;5072200;28;20275;-65
2021/07/08 00:40:18;;;;;;;1999.90;999.90;;;17.10;99.90;;;;;;5072094;28;20198;-65
2021/07/08 00:42:44;;;;;;;1999.90;999.90;;;17.10;99.90;;;;;;5072063;28;20457;-65
2021/07/08 00:45:13;;;;;;;1999.90;999.90;;;17.10;99.90;;;;;;5071839;28;20406;-65
2021/07/08 00:47:38;;;;;;;1999.90;999.90;;;17.00;99.90;;;;;;5072015;28;20769;-65
2021/07/08 00:50:06;;;;;;;1999.90;999.90;;;17.10;99.90;;;;;;5072069;28;20434;-65
2021/07/08 00:52:33;;;;;;;1999.90;999.90;;;17.20;99.90;;;;;;5072117;28;20182;-65
2021/07/08 00:54:58;;;;;;;1999.90;999.90;;;17.30;99.90;;;;;;5071747;28;20462;-65
2021/07/08 00:57:24;;;;;;;1999.90;999.90;;;17.30;99.90;;;;;;5071940;28;20407;-65
2021/07/08 00:59:54;;;;;;;1999.90;999.90;;;17.40;99.90;;;;;;5071820;28;20216;-64
2021/07/08 01:02:20;;;;;;;1999.90;999.90;;;17.40;99.90;;;;;;5071920;28;20796;-65
2021/07/08 01:04:47;;;;;;;1999.90;999.90;;;17.30;99.90;;;;;;5071757;28;20427;-65
2021/07/08 01:07:19;;;;;;;1999.90;999.90;;;17.20;99.90;;;;;;5074619;28;20415;-65
2021/07/08 01:09:45;;;;;;;1999.90;999.90;;;17.10;99.90;;;;;;5078329;28;20505;-64
2021/07/08 01:12:10;;;;;;;1999.90;999.90;;;17.10;99.90;;;;;;5078489;28;20411;-65
2021/07/08 01:14:36;;;;;;;1999.90;999.90;;;17.10;99.90;;;;;;5078160;28;20420;-65
2021/07/08 01:17:05;;;;;;;1999.90;999.90;;;17.10;99.90;;;;;;5078492;28;20194;-66
2021/07/08 01:19:33;;;;;;;1999.90;999.90;;;17.20;99.90;;;;;;5078317;28;20434;-65
2021/07/08 01:21:59;;;;;;;1999.90;999.90;;;17.20;99.90;;;;;;5078524;28;20474;-65
2021/07/08 01:24:25;;;;;;;1999.90;999.90;;;17.10;99.90;;;;;;5078016;28;20807;-65
2021/07/08 01:26:51;;;;;;;1999.90;999.90;;;17.10;99.90;;;;;;5078308;28;20460;-65
2021/07/08 01:29:17;;;;;;;1999.90;999.90;;;17.00;99.90;;;;;;5078145;28;20445;-65
2021/07/08 01:31:42;;;;;;;1999.90;999.90;;;17.10;99.90;;;;;;5078474;28;20421;-66
2021/07/08 01:34:08;;;;;;;1999.90;999.90;;;17.10;99.90;;;;;;5077988;28;20304;-65
2021/07/08 01:36:34;;;;;;;1999.90;999.90;;;17.20;99.90;;;;;;5078277;28;20172;-65
2021/07/08 01:38:59;;;;;;;1999.90;999.90;;;17.10;99.90;;;;;;5078163;28;20237;-65
2021/07/08 01:41:25;;;;;;;1999.90;999.90;;;17.10;99.90;;;;;;5078219;28;20181;-65
2021/07/08 01:43:50;;;;;;;1999.90;999.90;;;17.00;99.90;;;;;;5077904;28;20237;-65
2021/07/08 01:46:18;;;;;;;1999.90;999.90;;;17.00;99.90;;;;;;5078118;28;20638;-65
2021/07/08 01:48:45;;;;;;;1999.90;999.90;;;17.00;99.90;;;;;;5078136;28;20648;-65
2021/07/08 01:51:27;;;;;;;1999.90;999.90;;;16.90;99.90;;;;;;5078123;28;20492;-65
2021/07/08 01:53:52;;;;;;;1999.90;999.90;;;16.80;99.90;;;;;;5077913;28;20778;-64
2021/07/08 01:56:18;;;;;;;1999.90;999.90;;;16.80;99.90;;;;;;5078095;28;20398;-65
2021/07/08 01:58:45;;;;;;;1999.90;999.90;;;16.80;99.90;;;;;;5078067;28;20173;-64
2021/07/08 02:01:10;;;;;;;1999.90;999.90;;;16.70;99.90;;;;;;5078038;28;20405;-65
2021/07/08 02:03:36;;;;;;;1999.90;999.90;;;16.60;99.90;;;;;;5077890;28;20505;-65
2021/07/08 02:06:03;;;;;;;1999.90;999.90;;;16.50;99.90;;;;;;5077768;28;20261;-64
2021/07/08 02:08:28;;;;;;;1999.90;999.90;;;16.50;99.90;;;;;;5078069;28;20819;-65
2021/07/08 02:10:54;;;;;;;1999.90;999.90;;;16.50;99.90;;;;;;5077637;28;20532;-65
2021/07/08 02:13:20;;;;;;;1999.90;999.90;;;16.50;99.90;;;;;;5077956;28;20449;-65
2021/07/08 02:15:46;;;;;;;1999.90;999.90;;;16.60;99.90;;;;;;5077655;28;20409;-66
2021/07/08 02:18:11;;;;;;;1999.90;999.90;;;16.60;99.90;;;;;;5076696;28;20172;-66
2021/07/08 02:20:38;;;;;;;1999.90;999.90;;;16.40;99.90;;;;;;5074594;28;20190;-65
2021/07/08 02:23:05;;;;;;;1999.90;999.90;;;16.40;99.90;;;;;;5074922;28;20775;-65
2021/07/08 02:25:31;;;;;;;1999.90;999.90;;;16.30;99.90;;;;;;5074385;28;20495;-65
2021/07/08 02:27:58;;;;;;;1999.90;999.90;;;16.20;99.90;;;;;;5074717;28;20531;-65
2021/07/08 02:30:25;;;;;;;1999.90;999.90;;;16.30;99.90;;;;;;5074928;28;20198;-65
2021/07/08 02:32:55;;;;;;;1999.90;999.90;;;16.20;99.90;;;;;;5074788;28;20417;-64
2021/07/08 02:35:23;;;;;;;1999.90;999.90;;;16.20;99.90;;;;;;5074293;28;20438;-65
2021/07/08 02:37:48;;;;;;;1999.90;999.90;;;16.20;99.90;;;;;;5074449;28;20402;-65
2021/07/08 02:40:25;;;;;;;1999.90;999.90;;;16.20;99.90;;;;;;5074689;28;20768;-65
2021/07/08 02:42:52;;;;;;;1999.90;999.90;;;16.20;99.90;;;;;;5074375;28;20195;-65
2021/07/08 02:45:28;;;;;;;1999.90;999.90;;;16.20;99.90;;;;;;5074176;28;20795;-65
2021/07/08 02:47:56;;;;;;;1999.90;999.90;;;16.20;99.90;;;;;;5074461;28;20402;-65
2021/07/08 02:50:25;;;;;;;1999.90;999.90;;;16.10;99.90;;;;;;5074395;28;20930;-65
2021/07/08 02:52:51;;;;;;;1999.90;999.90;;;16.10;99.90;;;;;;5074301;28;20411;-65
2021/07/08 02:55:17;;;;;;;1999.90;999.90;;;16.20;99.90;;;;;;5074002;28;20418;-65
2021/07/08 02:57:46;;;;;;;1999.90;999.90;;;16.10;99.90;;;;;;5074231;28;20780;-65
2021/07/08 03:00:13;;;;;;;1999.90;999.90;;;16.10;99.90;;;;;;5072779;28;20503;-65
2021/07/08 03:02:39;;;;;;;1999.90;999.90;;;16.10;99.90;;;;;;5074007;28;20440;-65
2021/07/08 03:05:06;;;;;;;1999.90;999.90;;;16.10;99.90;;;;;;5073612;28;20410;-65
2021/07/08 03:07:32;;;;;;;1999.90;999.90;;;16.10;99.90;;;;;;5074141;28;20409;-64
2021/07/08 03:09:58;;;;;;;1999.90;999.90;;;16.10;99.90;;;;;;5074048;28;20444;-64
2021/07/08 03:12:23;;;;;;;1999.90;999.90;;;16.00;99.90;;;;;;5073819;28;20168;-65
2021/07/08 03:14:49;;;;;;;1999.90;999.90;;;16.00;99.90;;;;;;5073407;28;20170;-65
2021/07/08 03:17:14;;;;;;;1999.90;999.90;;;16.00;99.90;;;;;;5073715;28;20639;-65
2021/07/08 03:19:40;;;;;;;1999.90;999.90;;;15.80;99.90;;;;;;5073529;28;20194;-65
2021/07/08 03:22:06;;;;;;;1999.90;999.90;;;15.90;99.90;;;;;;5073706;28;20329;-65
2021/07/08 03:24:31;;;;;;;1999.90;999.90;;;15.80;99.90;;;;;;5073128;28;20692;-65
2021/07/08 03:26:57;;;;;;;1999.90;999.90;;;15.80;99.90;;;;;;5073564;28;20177;-64
2021/07/08 03:29:22;;;;;;;1999.90;999.90;;;15.90;99.90;;;;;;5073300;28;20187;-65
2021/07/08 03:31:48;;;;;;;1999.90;999.90;;;15.90;99.90;;;;;;5073249;28;20170;-64
2021/07/08 03:34:13;;;;;;;1999.90;999.90;;;15.90;99.90;;;;;;5073064;28;20178;-65
2021/07/08 03:36:39;;;;;;;1999.90;999.90;;;16.00;99.90;;;;;;5073254;28;20628;-64
2021/07/08 03:39:05;;;;;;;1999.90;999.90;;;16.00;99.90;;;;;;5073121;28;20197;-66
2021/07/08 03:41:31;;;;;;;1999.90;999.90;;;16.10;99.90;;;;;;5073162;28;20170;-65
2021/07/08 03:43:58;;;;;;;1999.90;999.90;;;16.10;99.90;;;;;;5072872;28;20831;-65
2021/07/08 03:46:24;;;;;;;1999.90;999.90;;;16.10;99.90;;;;;;5072994;28;20466;-65
2021/07/08 03:48:50;;;;;;;1999.90;999.90;;;16.10;99.90;;;;;;5072881;28;20422;-65
2021/07/08 03:51:15;;;;;;;1999.90;999.90;;;16.10;99.90;;;;;;5072943;28;20403;-65
2021/07/08 03:53:41;;;;;;;1999.90;999.90;;;16.20;99.90;;;;;;5072809;28;20170;-64
2021/07/08 03:56:07;;;;;;;1999.90;999.90;;;16.20;99.90;;;;;;5072703;28;20175;-64
2021/07/08 03:58:33;;;;;;;1999.90;999.90;;;16.20;99.90;;;;;;5072835;28;20253;-65
2021/07/08 04:00:59;;;;;;;1999.90;999.90;;;16.30;99.90;;;;;;5072743;28;20183;-65
2021/07/08 04:03:24;;;;;;;1999.90;999.90;;;16.30;99.90;;;;;;5072630;28;20452;-65
2021/07/08 04:05:50;;;;;;;1999.90;999.90;;;16.20;99.90;;;;;;5072470;28;20413;-65
2021/07/08 04:08:16;;;;;;;1999.90;999.90;;;16.20;99.90;;;;;;5072609;28;20186;-65
2021/07/08 04:10:43;;;;;;;1999.90;999.90;;;16.20;99.90;;;;;;5072481;28;20293;-65
2021/07/08 04:13:15;;;;;;;1999.90;999.90;;;16.30;99.90;;;;;;5072592;28;20420;-65
2021/07/08 04:15:42;;;;;;;1999.90;999.90;;;16.20;99.90;;;;;;5072204;28;20407;-65
2021/07/08 04:18:09;;;;;;;1999.90;999.90;;;16.20;99.90;;;;;;5072394;28;20413;-64
2021/07/08 04:20:35;;;;;;;1999.90;999.90;;;16.30;99.90;;;;;;5072348;28;20429;-65
2021/07/08 04:23:01;;;;;;;1999.90;999.90;;;16.40;99.90;;;;;;5072186;28;20806;-64
2021/07/08 04:25:26;;;;;;;1999.90;999.90;;;16.50;99.90;;;;;;5072240;28;20219;-65
2021/07/08 04:27:52;;;;;;;1999.90;999.90;;;16.40;99.90;;;;;;5072386;28;20765;-65
2021/07/08 04:30:22;;;;;;;1999.90;999.90;;;16.50;99.90;;;;;;5072247;28;20191;-65
2021/07/08 04:32:49;;;;;;;1999.90;999.90;;;16.60;99.90;;;;;;5072265;28;20413;-65
2021/07/08 04:35:19;;;;;;;1999.90;999.90;;;16.60;99.90;;;;;;5071982;28;20895;-64
2021/07/08 04:37:45;;;;;;;1999.90;999.90;;;16.60;99.90;;;;;;5072248;28;20431;-65
2021/07/08 04:40:14;;;;;;;1999.90;999.90;;;16.60;99.90;;;;;;5072057;28;20512;-65
2021/07/08 04:42:40;;;;;;;1999.90;999.90;;;16.60;99.90;;;;;;5071461;28;20420;-65
2021/07/08 04:45:07;;;;;;;1999.90;999.90;;;16.60;99.90;;;;;;5071798;28;20405;-64
2021/07/08 04:47:33;;;;;;;1999.90;999.90;;;16.60;99.90;;;;;;5072040;28;20407;-64
2021/07/08 04:49:59;;;;;;;1999.90;999.90;;;16.60;99.90;;;;;;5071986;28;20417;-65
2021/07/08 04:52:24;;;;;;;1999.90;999.90;;;16.60;99.90;;;;;;5072038;28;20199;-64
2021/07/08 04:54:50;;;;;;;1999.90;999.90;;;16.70;99.90;;;;;;5071670;28;20408;-65
2021/07/08 04:57:17;;;;;;;1999.90;999.90;;;16.70;99.90;;;;;;5071965;28;20232;-65
2021/07/08 04:59:43;;;;;;;1999.90;999.90;;;16.80;99.90;;;;;;5071981;28;20282;-65
2021/07/08 05:02:08;;;;;;;1999.90;999.90;;;16.80;99.90;;;;;;5071889;28;20512;-65
2021/07/08 05:04:34;;;;;;;1999.90;999.90;;;16.80;99.90;;;;;;5071616;28;20232;-65
2021/07/08 05:07:00;;;;;;;1999.90;999.90;;;16.80;99.90;;;;;;5071881;28;20594;-65
2021/07/08 05:09:25;;;;;;;1999.90;999.90;;;16.90;99.90;;;;;;5071693;28;20205;-65
2021/07/08 05:11:51;;;;;;;1999.90;999.90;;;16.90;99.90;;;;;;5071904;28;20177;-65
2021/07/08 05:14:16;;;;;;;1999.90;999.90;;;17.10;99.90;;;;;;5071500;28;20182;-65
2021/07/08 05:16:42;;;;;;;1999.90;999.90;;;17.10;99.90;;;;;;5071811;28;20268;-65
2021/07/08 05:19:08;;;;;;;1999.90;999.90;;;17.10;99.90;;;;;;5071681;28;20194;-65
2021/07/08 05:21:33;;;;;;;1999.90;999.90;;;17.20;99.90;;;;;;5071731;28;20770;-65
2021/07/08 05:24:02;;;;;;;1999.90;999.90;;;17.30;99.90;;;;;;5071397;28;20205;-65
2021/07/08 05:26:28;;;;;;;1999.90;999.90;;;17.30;99.90;;;;;;5071642;28;20256;-65
2021/07/08 05:28:54;;;;;;;1999.90;999.90;;;17.30;99.90;;;;;;5071650;28;20986;-65
2021/07/08 05:31:20;;;;;;;1999.90;999.90;;;17.20;99.90;;;;;;5071636;28;20528;-65
2021/07/08 05:33:45;;;;;;;1999.90;999.90;;;17.20;99.90;;;;;;5071606;28;20274;-65
2021/07/08 05:36:11;;;;;;;1999.90;999.90;;;17.00;99.90;;;;;;5071475;28;20415;-64
2021/07/08 05:38:36;;;;;;;1999.90;999.90;;;16.80;99.90;;;;;;5071602;28;20224;-65
2021/07/08 05:41:02;;;;;;;1999.90;999.90;;;16.70;99.90;;;;;;5071524;28;20629;-64
2021/07/08 05:43:28;;;;;;;1999.90;999.90;;;16.80;99.90;;;;;;5071697;28;20650;-65
2021/07/08 05:45:53;;;;;;;1999.90;999.90;;;17.00;99.90;;;;;;5071308;28;20174;-64
2021/07/08 05:48:19;;;;;;;1999.90;999.90;;;17.10;99.90;;;;;;5071418;28;20176;-65
2021/07/08 05:50:45;;;;;;;1999.90;999.90;;;17.10;99.90;;;;;;5071552;28;20201;-64
2021/07/08 05:53:11;;;;;;;1999.90;999.90;;;17.20;99.90;;;;;;5071375;28;20184;-64
2021/07/08 05:55:37;;;;;;;1999.90;999.90;;;17.30;99.90;;;;;;5074563;28;20411;-65
2021/07/08 05:58:02;;;;;;;1999.90;999.90;;;17.40;99.90;;;;;;5075122;28;20182;-66
2021/07/08 06:00:28;;;;;;;1999.90;999.90;;;17.60;99.90;;;;;;5075071;28;20587;-65
2021/07/08 06:02:54;;;;;;;1999.90;999.90;;;17.70;99.90;;;;;;5074924;28;20199;-65
2021/07/08 06:05:19;;;;;;;1999.90;999.90;;;17.80;99.90;;;;;;5074710;28;20173;-65
2021/07/08 06:07:45;;;;;;;1999.90;999.90;;;18.00;99.90;;;;;;5075023;28;20176;-65
2021/07/08 06:10:11;;;;;;;1999.90;999.90;;;18.10;99.90;;;;;;5074748;28;20769;-65
2021/07/08 06:12:39;;;;;;;1999.90;999.90;;;18.30;99.90;;;;;;5074832;28;20256;-65
2021/07/08 06:15:05;;;;;;;1999.90;999.90;;;18.40;99.90;;;;;;5074545;28;20501;-65
2021/07/08 06:17:30;;;;;;;1999.90;999.90;;;18.70;99.90;;;;;;5074889;28;20403;-65
2021/07/08 06:19:56;;;;;;;1999.90;999.90;;;18.80;99.90;;;;;;5074605;28;20426;-65
2021/07/08 06:22:22;;;;;;;1999.90;999.90;;;19.00;99.90;;;;;;5074808;28;20200;-64
2021/07/08 06:24:48;;;;;;;1999.90;999.90;;;19.20;99.90;;;;;;5074241;28;20262;-65
2021/07/08 06:27:13;;;;;;;1999.90;999.90;;;19.40;99.90;;;;;;5074617;28;20635;-65
2021/07/08 06:29:39;;;;;;;1999.90;999.90;;;19.50;99.90;;;;;;5074546;28;20447;-65
2021/07/08 06:32:05;;;;;;;1999.90;999.90;;;19.70;99.90;;;;;;5074621;28;20685;-65
2021/07/08 06:34:31;;;;;;;1999.90;999.90;;;19.80;99.90;;;;;;5074160;28;20219;-65
2021/07/08 06:36:56;;;;;;;1999.90;999.90;;;19.90;99.90;;;;;;5074484;28;20206;-65
2021/07/08 06:39:22;;;;;;;1999.90;999.90;;;20.10;99.90;;;;;;5074337;28;20248;-65
2021/07/08 06:41:47;;;;;;;1999.90;999.90;;;20.20;99.90;;;;;;5074339;28;20255;-65
2021/07/08 06:44:13;;;;;;;1999.90;999.90;;;20.40;99.90;;;;;;5073930;28;20253;-66
2021/07/08 06:46:39;;;;;;;1999.90;999.90;;;20.50;99.90;;;;;;5074320;28;20170;-65
2021/07/08 06:49:04;;;;;;;1999.90;999.90;;;20.60;99.90;;;;;;5074201;28;20259;-65
2021/07/08 06:51:30;;;;;;;1999.90;999.90;;;20.70;99.90;;;;;;5074196;28;20166;-65
2021/07/08 06:53:56;;;;;;;1999.90;999.90;;;20.70;99.90;;;;;;5073909;28;20175;-65
2021/07/08 06:56:23;;;;;;;1999.90;999.90;;;20.70;99.90;;;;;;5074008;28;20930;-66
2021/07/08 06:58:49;;;;;;;1999.90;999.90;;;20.90;99.90;;;;;;5074003;28;20550;-65
2021/07/08 07:01:16;;;;;;;1999.90;999.90;;;20.90;99.90;;;;;;5073906;28;20416;-65
2021/07/08 07:03:42;;;;;;;1999.90;999.90;;;20.90;99.90;;;;;;5073763;28;20202;-65
2021/07/08 07:06:07;;;;;;;1999.90;999.90;;;21.00;99.90;;;;;;5073244;28;20418;-65
2021/07/08 07:08:33;;;;;;;1999.90;999.90;;;21.10;99.90;;;;;;5073823;28;20548;-65
2021/07/08 07:10:59;;;;;;;1999.90;999.90;;;21.10;99.90;;;;;;5073795;28;20201;-65
2021/07/08 07:13:25;;;;;;;1999.90;999.90;;;21.20;99.90;;;;;;5073711;28;20423;-65
2021/07/08 07:15:51;;;;;;;1999.90;999.90;;;21.20;99.90;;;;;;5073477;28;20459;-65
2021/07/08 07:18:17;;;;;;;1999.90;999.90;;;21.20;99.90;;;;;;5073676;28;20329;-65
2021/07/08 07:20:42;;;;;;;1999.90;999.90;;;21.20;99.90;;;;;;5073506;28;20205;-65
2021/07/08 07:23:08;;;;;;;1999.90;999.90;;;21.20;99.90;;;;;;5073418;28;20239;-65
2021/07/08 07:25:39;;;;;;;1999.90;999.90;;;21.30;99.90;;;;;;5073106;28;20266;-65
2021/07/08 07:28:05;;;;;;;1999.90;999.90;;;21.40;99.90;;;;;;5073662;28;20588;-65
2021/07/08 07:30:31;;;;;;;1999.90;999.90;;;21.40;99.90;;;;;;5073357;28;20454;-65
2021/07/08 07:32:57;;;;;;;1999.90;999.90;;;21.50;99.90;;;;;;5073462;28;20845;-65
2021/07/08 07:35:23;;;;;;;1999.90;999.90;;;21.70;99.90;;;;;;5073025;28;20175;-65
2021/07/08 07:37:51;;;;;;;1999.90;999.90;;;21.80;99.90;;;;;;5073308;28;20245;-64
2021/07/08 07:40:18;;;;;;;1999.90;999.90;;;21.90;99.90;;;;;;5073412;28;20434;-65
2021/07/08 07:42:44;;;;;;;1999.90;999.90;;;22.10;99.90;;;;;;5073121;28;20929;-65
2021/07/08 07:45:11;;;;;;;1999.90;999.90;;;22.20;99.90;;;;;;5072997;28;20434;-66
2021/07/08 07:47:37;;;;;;;1999.90;999.90;;;22.30;99.90;;;;;;5073021;28;20431;-66
2021/07/08 07:50:05;;;;;;;1999.90;999.90;;;22.50;99.90;;;;;;5072908;28;20915;-66
2021/07/08 07:52:31;;;;;;;1999.90;999.90;;;22.50;99.90;;;;;;5072727;28;20163;-65
2021/07/08 07:54:57;;;;;;;1999.90;999.90;;;22.60;99.90;;;;;;5072547;28;20752;-66
2021/07/08 07:57:23;;;;;;;1999.90;999.90;;;22.70;99.90;;;;;;5072917;28;20419;-66
2021/07/08 07:59:50;;;;;;;1999.90;999.90;;;22.70;99.90;;;;;;5072807;28;20654;-66
2021/07/08 08:02:15;;;;;;;1999.90;999.90;;;22.80;99.90;;;;;;5072691;28;20563;-66
2021/07/08 08:04:52;;;;;;;1999.90;999.90;;;23.10;99.90;;;;;;5072397;28;20451;-66
2021/07/08 08:10:03;;;;;;;1999.90;999.90;;;23.10;99.90;;;;;;5072788;28;20865;-66
2021/07/08 08:12:29;;;;;;;1999.90;999.90;;;23.20;99.90;;;;;;5072606;28;20404;-66
2021/07/08 08:14:55;;;;;;;1999.90;999.90;;;23.30;99.90;;;;;;5072323;28;20880;-66
2021/07/08 08:17:20;;;;;;;1999.90;999.90;;;23.40;99.90;;;;;;5071587;28;20173;-67
2021/07/08 08:19:46;;;;;;;1999.90;999.90;;;23.40;99.90;;;;;;5072404;28;20255;-65
2021/07/08 08:22:12;;;;;;;1999.90;999.90;;;23.30;99.90;;;;;;5072467;28;20613;-66
2021/07/08 08:24:40;;;;;;;1999.90;999.90;;;23.20;99.90;;;;;;5072047;28;20216;-65
2021/07/08 08:27:06;;;;;;;1999.90;999.90;;;23.00;99.90;;;;;;5072475;28;20587;-65
2021/07/08 08:29:33;;;;;;;1999.90;999.90;;;23.00;99.90;;;;;;5072324;28;20455;-65
2021/07/08 08:31:59;;;;;;;1999.90;999.90;;;23.00;99.90;;;;;;5072243;28;20423;-65
2021/07/08 08:34:25;;;;;;;1999.90;999.90;;;23.10;99.90;;;;;;5071961;28;20491;-65
2021/07/08 08:36:50;;;;;;;1999.90;999.90;;;23.30;99.90;;;;;;5072294;28;20878;-65
2021/07/08 08:39:16;;;;;;;1999.90;999.90;;;23.40;99.90;;;;;;5072083;28;20270;-66
2021/07/08 08:41:41;;;;;;;1999.90;999.90;;;23.40;99.90;;;;;;5072114;28;20240;-66
2021/07/08 08:44:07;;;;;;;1999.90;999.90;;;23.30;99.90;;;;;;5071884;28;20271;-65
2021/07/08 08:46:34;;;;;;;1999.90;999.90;;;23.10;99.90;;;;;;5072132;28;20251;-65
2021/07/08 08:49:03;;;;;;;1999.90;999.90;;;22.80;99.90;;;;;;5072253;28;20194;-64
2021/07/08 08:51:30;;;;;;;1999.90;999.90;;;22.60;99.90;;;;;;5072049;28;20436;-65
2021/07/08 08:53:56;;;;;;;1999.90;999.90;;;22.40;99.90;;;;;;5070469;28;20416;-65
2021/07/08 08:56:21;;;;;;;1999.90;999.90;;;22.20;99.90;;;;;;5072056;28;20410;-65
2021/07/08 08:58:47;;;;;;;1999.90;999.90;;;22.10;99.90;;;;;;5072101;28;20171;-65
2021/07/08 09:01:19;;;;;;;1999.90;999.90;;;22.20;99.90;;;;;;5071969;28;20173;-65
2021/07/08 09:03:45;;;;;;;1999.90;999.90;;;22.40;99.90;;;;;;5071661;28;20288;-65
2021/07/08 09:06:13;;;;;;;1999.90;999.90;;;22.40;99.90;;;;;;5072021;28;20386;-66
2021/07/08 09:08:49;;;;;;;1999.90;999.90;;;22.60;99.90;;;;;;5071610;28;20431;-66
2021/07/08 09:11:22;;;;;;;1999.90;999.90;;;22.80;99.90;;;;;;5111952;22;20974;-66
2021/07/08 09:14:02;;;;;;;1999.90;999.90;;;23.10;99.90;;;;;;5072332;28;20456;-66
2021/07/08 09:16:36;;;;;;;1999.90;999.90;;;23.40;99.90;;;;;;5072573;28;20404;-66
2021/07/08 09:19:10;;;;;;;1999.90;999.90;;;23.60;99.90;;;;;;5072544;28;20538;-66
2021/07/08 09:21:46;;;;;;;1999.90;999.90;;;23.80;99.90;;;;;;5052410;28;20432;-66
2021/07/08 09:24:20;;;;;;;1999.90;999.90;;;23.90;99.90;;;;;;5052039;28;20503;-66
2021/07/08 09:26:54;;;;;;;1999.90;999.90;;;24.20;99.90;;;;;;5052272;28;20418;-66
2021/07/08 09:29:22;;;;;;;1999.90;999.90;;;24.40;99.90;;;;;;5055343;28;20429;-66
2021/07/08 09:31:50;;;;;;;1999.90;999.90;;;24.50;99.90;;;;;;5056020;28;20377;-66
2021/07/08 09:34:19;;;;;;;1999.90;999.90;;;24.70;99.90;;;;;;5055789;28;20402;-67
2021/07/08 09:36:48;;;;;;;1999.90;999.90;;;24.80;99.90;;;;;;5055944;28;20381;-67
2021/07/08 09:39:14;;;;;;;1999.90;999.90;;;24.90;99.90;;;;;;5056074;28;20410;-66
2021/07/08 09:41:48;;;;;;;1999.90;999.90;;;24.70;99.90;;;;;;5056115;28;20783;-66
2021/07/08 09:44:22;;;;;;;1999.90;999.90;;;24.60;99.90;;;;;;5055367;28;20457;-66
2021/07/08 09:46:48;;;;;;;1999.90;999.90;;;24.80;99.90;;;;;;5055734;28;20430;-67
2021/07/08 09:49:14;;;;;;;1999.90;999.90;;;25.00;99.90;;;;;;5055609;28;20441;-67
2021/07/08 09:51:41;;;;;;;1999.90;999.90;;;25.10;99.90;;;;;;5055645;28;20456;-66
2021/07/08 09:56:51;;;;;;;1999.90;999.90;;;25.30;99.90;;;;;;5055749;28;20392;-67
2021/07/08 09:59:20;;;;;;;1999.90;999.90;;;25.40;99.90;;;;;;5055401;28;20410;-67
2021/07/08 10:01:57;;;;;;;1999.90;999.90;;;25.20;99.90;;;;;;5055193;28;20455;-66
2021/07/08 10:04:23;;;;;;;1999.90;999.90;;;25.40;99.90;;;;;;5054925;28;20468;-66
2021/07/08 10:06:50;;;;;;;1999.90;999.90;;;25.70;99.90;;;;;;5053795;28;20531;-66
2021/07/08 10:09:18;;;;;;;1999.90;999.90;;;25.90;99.90;;;;;;5054947;28;20877;-66
2021/07/08 10:11:49;;;;;;;1999.90;999.90;;;26.10;99.90;;;;;;5055055;28;20909;-66
2021/07/08 10:14:19;;;;;;;1999.90;999.90;;;26.00;99.90;;;;;;5054561;28;20380;-66
2021/07/08 10:16:54;;;;;;;1999.90;999.90;;;26.20;99.90;;;;;;5054904;28;20885;-66
2021/07/08 10:19:21;;;;;;;1999.90;999.90;;;26.40;99.90;;;;;;5054760;28;20463;-66
2021/07/08 10:21:50;;;;;;;1999.90;999.90;;;26.60;99.90;;;;;;5054762;28;20404;-66
2021/07/08 10:24:17;;;;;;;1999.90;999.90;;;26.40;99.90;;;;;;5054438;28;20442;-66
2021/07/08 10:26:46;;;;;;;1999.90;999.90;;;26.10;99.90;;;;;;5054553;28;20406;-66
2021/07/08 10:29:14;;;;;;;1999.90;999.90;;;26.10;99.90;;;;;;5054573;28;20918;-66
2021/07/08 10:31:41;;;;;;;1999.90;999.90;;;26.20;99.90;;;;;;5054583;28;21193;-66
2021/07/08 10:34:08;;;;;;;1999.90;999.90;;;26.30;99.90;;;;;;5054244;28;20757;-66
2021/07/08 10:36:34;;;;;;;1999.90;999.90;;;26.50;99.90;;;;;;5054445;28;20372;-66
2021/07/08 10:39:06;;;;;;;1999.90;999.90;;;26.60;99.90;;;;;;5054126;28;20411;-66
2021/07/08 10:41:34;;;;;;;1999.90;999.90;;;26.60;99.90;;;;;;5054115;28;20409;-66
2021/07/08 10:44:00;;;;;;;1999.90;999.90;;;26.60;99.90;;;;;;5053979;28;20449;-66
2021/07/08 10:46:35;;;;;;;1999.90;999.90;;;26.40;99.90;;;;;;5054396;28;21009;-66
2021/07/08 10:49:11;;;;;;;1999.90;999.90;;;26.50;99.90;;;;;;5054320;28;20189;-66
2021/07/08 10:51:38;;;;;;;1999.90;999.90;;;26.60;99.90;;;;;;5054217;28;20398;-66
2021/07/08 10:54:25;;;;;;;1999.90;999.90;;;26.70;99.90;;;;;;5054187;28;20406;-66
2021/07/08 10:56:51;;;;;;;1999.90;999.90;;;26.80;99.90;;;;;;5054122;28;20405;-66
2021/07/08 10:59:17;;;;;;;1999.90;999.90;;;27.00;99.90;;;;;;5054014;28;20402;-66
2021/07/08 11:01:52;;;;;;;1999.90;999.90;;;27.00;99.90;;;;;;5054086;28;20225;-66
2021/07/08 11:04:47;;;;;;;1999.90;999.90;;;26.90;99.90;;;;;;5053621;28;20190;-66
2021/07/08 11:07:21;;;;;;;1999.90;999.90;;;26.90;99.90;;;;;;5049811;28;20408;-67
2021/07/08 11:10:02;;;;;;;1999.90;999.90;;;26.80;99.90;;;;;;5047743;28;20450;-66
2021/07/08 11:12:36;;;;;;;1999.90;999.90;;;26.60;99.90;;;;;;5043026;28;20749;-67
2021/07/08 11:15:04;;;;;;;1999.90;999.90;;;26.70;99.90;;;;;;5050796;28;20759;-66
2021/07/08 11:17:41;;;;;;;1999.90;999.90;;;27.00;99.90;;;;;;5049896;28;20403;-66
2021/07/08 11:20:31;;;;;;;1999.90;999.90;;;27.00;99.90;;;;;;5031496;28;20389;-67
2021/07/08 11:23:17;;;;;;;1999.90;999.90;;;26.80;99.90;;;;;;5034481;28;20459;-67
2021/07/08 11:25:42;;;;;;;1999.90;999.90;;;26.90;99.90;;;;;;5048011;28;20417;-68
2021/07/08 11:28:29;;;;;;;1999.90;999.90;;;26.80;99.90;;;;;;5031808;28;20399;-68
2021/07/08 11:31:06;;;;;;;1999.90;999.90;;;26.80;99.90;;;;;;5031635;28;20199;-66
2021/07/08 11:33:35;;;;;;;1999.90;999.90;;;26.60;99.90;;;;;;5031657;28;20983;-66
2021/07/08 11:36:12;;;;;;;1999.90;999.90;;;26.60;99.90;;;;;;5030891;28;20414;-66
2021/07/08 11:38:43;;;;;;;1999.90;999.90;;;26.50;99.90;;;;;;5031009;28;20468;-66
2021/07/08 11:41:09;;;;;;;1999.90;999.90;;;26.20;99.90;;;;;;5043442;28;20412;-65
2021/07/08 11:43:38;;;;;;;1999.90;999.90;;;26.30;99.90;;;;;;5041051;28;20562;-67
2021/07/08 11:46:11;;;;;;;1999.90;999.90;;;26.40;99.90;;;;;;5030237;28;20390;-67
2021/07/08 11:48:42;;;;;;;1999.90;999.90;;;26.40;99.90;;;;;;5030652;28;20374;-67
2021/07/08 11:51:17;;;;;;;1999.90;999.90;;;25.80;99.90;;;;;;5030380;28;20513;-67
2021/07/08 11:53:44;;;;;;;1999.90;999.90;;;25.30;99.90;;;;;;5030073;28;20395;-68
2021/07/08 11:56:10;;;;;;;1999.90;999.90;;;25.00;99.90;;;;;;5030629;28;20382;-67
2021/07/08 11:58:36;;;;;;;1999.90;999.90;;;24.60;99.90;;;;;;5030723;28;20396;-67
2021/07/08 12:01:06;;;;;;;1999.90;999.90;;;24.40;99.90;;;;;;5029102;28;20192;-67
2021/07/08 12:03:40;;;;;;;1999.90;999.90;;;24.30;99.90;;;;;;5030965;28;20919;-67
2021/07/08 12:06:12;;;;;;;1999.90;999.90;;;24.10;99.90;;;;;;5030742;28;20406;-67